CES5661 ZSPD-ZYTL
Flight info
| Callsign | CES5661 |
|---|---|
| Flight time | N/A |
| Altitude | 34100 |
| Route | ODU84D ODULO B221 XDX/K0850S1070 DCT URBAD W172 IGDEG W173 NIXEP NIX06A |
| Aircraft | A320/M-V/N |
Departure
| Time | 2026-05-05 14:15 |
|---|---|
| Airport | Shanghai Pudong International Airport (ZSPD) |
Arrival
| Time | N/A |
|---|---|
| Airport | Dalian Zhoushuizi International Airport (ZYTL) |
| Time | Latitude | Longitude | Altitude | Speed | Heading |
|---|---|---|---|---|---|
| 2026-05-05 13:29 | 31.14124 | 121.80714 | 23 ft | 0 kts | 252° |
| 2026-05-05 13:52 | 31.14128 | 121.80731 | 26 ft | 2 kts | 251° |
| 2026-05-05 13:52 | 31.14131 | 121.80743 | 27 ft | 2 kts | 250° |
| 2026-05-05 13:53 | 31.14136 | 121.80761 | 25 ft | 2 kts | 243° |
| 2026-05-05 13:53 | 31.14141 | 121.80779 | 24 ft | 2 kts | 236° |
| 2026-05-05 13:53 | 31.14149 | 121.80796 | 25 ft | 2 kts | 282° |
| 2026-05-05 13:53 | 31.14153 | 121.80811 | 28 ft | 2 kts | 330° |
| 2026-05-05 13:54 | 31.14151 | 121.80811 | 27 ft | 2 kts | 316° |
| 2026-05-05 13:54 | 31.14147 | 121.80811 | 27 ft | 2 kts | 258° |
| 2026-05-05 13:54 | 31.14146 | 121.80813 | 26 ft | 3 kts | 209° |
| 2026-05-05 13:54 | 31.14147 | 121.80815 | 26 ft | 3 kts | 177° |
| 2026-05-05 13:55 | 31.14156 | 121.80813 | 25 ft | 0 kts | 32° |
| 2026-05-05 13:58 | 31.14159 | 121.80810 | 24 ft | 0 kts | 352° |
| 2026-05-05 13:59 | 31.14165 | 121.80804 | 24 ft | 0 kts | 326° |
| 2026-05-05 13:59 | 31.14143 | 121.80823 | 24 ft | 6 kts | 335° |
| 2026-05-05 14:00 | 31.14252 | 121.80760 | 23 ft | 5 kts | 338° |
| 2026-05-05 14:00 | 31.14279 | 121.80750 | 23 ft | 4 kts | 341° |
| 2026-05-05 14:00 | 31.14309 | 121.80739 | 23 ft | 8 kts | 342° |
| 2026-05-05 14:00 | 31.14390 | 121.80718 | 23 ft | 14 kts | 12° |
| 2026-05-05 14:01 | 31.14433 | 121.80798 | 23 ft | 11 kts | 70° |
| 2026-05-05 14:01 | 31.14454 | 121.80875 | 23 ft | 9 kts | 71° |
| 2026-05-05 14:01 | 31.14472 | 121.80939 | 23 ft | 8 kts | 72° |
| 2026-05-05 14:01 | 31.14486 | 121.80992 | 23 ft | 6 kts | 72° |
| 2026-05-05 14:02 | 31.14498 | 121.81036 | 23 ft | 7 kts | 72° |
| 2026-05-05 14:02 | 31.14515 | 121.81097 | 23 ft | 5 kts | 72° |
| 2026-05-05 14:02 | 31.14516 | 121.81103 | 25 ft | 0 kts | 72° |
| 2026-05-05 14:02 | 31.14517 | 121.81103 | 25 ft | 1 kts | 72° |
| 2026-05-05 14:03 | 31.14532 | 121.81157 | 25 ft | 10 kts | 72° |
| 2026-05-05 14:03 | 31.14551 | 121.81228 | 23 ft | 8 kts | 72° |
| 2026-05-05 14:03 | 31.14568 | 121.81286 | 23 ft | 7 kts | 71° |
| 2026-05-05 14:03 | 31.14571 | 121.81298 | 23 ft | 0 kts | 71° |
| 2026-05-05 14:04 | 31.14577 | 121.81318 | 25 ft | 4 kts | 72° |
| 2026-05-05 14:04 | 31.14589 | 121.81362 | 25 ft | 8 kts | 72° |
| 2026-05-05 14:04 | 31.14610 | 121.81413 | 23 ft | 6 kts | 50° |
| 2026-05-05 14:04 | 31.14643 | 121.81426 | 23 ft | 4 kts | 356° |
| 2026-05-05 14:05 | 31.14668 | 121.81419 | 23 ft | 4 kts | 343° |
| 2026-05-05 14:05 | 31.14704 | 121.81405 | 23 ft | 7 kts | 342° |
| 2026-05-05 14:05 | 31.14766 | 121.81381 | 23 ft | 11 kts | 342° |
| 2026-05-05 14:05 | 31.14850 | 121.81349 | 23 ft | 13 kts | 341° |
| 2026-05-05 14:06 | 31.14928 | 121.81320 | 24 ft | 11 kts | 343° |
| 2026-05-05 14:06 | 31.14993 | 121.81295 | 23 ft | 9 kts | 342° |
| 2026-05-05 14:06 | 31.15053 | 121.81273 | 23 ft | 11 kts | 341° |
| 2026-05-05 14:06 | 31.15137 | 121.81241 | 23 ft | 15 kts | 342° |
| 2026-05-05 14:07 | 31.15249 | 121.81199 | 23 ft | 18 kts | 341° |
| 2026-05-05 14:07 | 31.15370 | 121.81151 | 23 ft | 19 kts | 341° |
| 2026-05-05 14:07 | 31.15499 | 121.81105 | 22 ft | 16 kts | 340° |
| 2026-05-05 14:07 | 31.15571 | 121.81077 | 22 ft | 8 kts | 344° |
| 2026-05-05 14:08 | 31.15620 | 121.81059 | 22 ft | 7 kts | 342° |
| 2026-05-05 14:08 | 31.15658 | 121.81045 | 22 ft | 5 kts | 342° |
| 2026-05-05 14:08 | 31.15659 | 121.81044 | 22 ft | 0 kts | 342° |
| 2026-05-05 14:08 | 31.15672 | 121.81039 | 24 ft | 5 kts | 342° |
| 2026-05-05 14:09 | 31.15721 | 121.81026 | 22 ft | 7 kts | 3° |
| 2026-05-05 14:09 | 31.15753 | 121.81054 | 22 ft | 5 kts | 59° |
| 2026-05-05 14:09 | 31.15763 | 121.81089 | 22 ft | 4 kts | 72° |
| 2026-05-05 14:09 | 31.15765 | 121.81095 | 22 ft | 0 kts | 72° |
| 2026-05-05 14:11 | 31.15766 | 121.81098 | 22 ft | 3 kts | 72° |
| 2026-05-05 14:12 | 31.15776 | 121.81134 | 23 ft | 5 kts | 72° |
| 2026-05-05 14:12 | 31.15783 | 121.81173 | 24 ft | 4 kts | 87° |
| 2026-05-05 14:12 | 31.15777 | 121.81204 | 22 ft | 5 kts | 112° |
| 2026-05-05 14:12 | 31.15736 | 121.81243 | 22 ft | 8 kts | 160° |
| 2026-05-05 14:13 | 31.15734 | 121.81244 | 22 ft | 0 kts | 160° |
| 2026-05-05 14:14 | 31.15729 | 121.81245 | 22 ft | 5 kts | 161° |
| 2026-05-05 14:14 | 31.15444 | 121.81352 | 25 ft | 86 kts | 161° |
| 2026-05-05 14:15 | 31.14617 | 121.81664 | 22 ft | 160 kts | 162° |
| 2026-05-05 14:15 | 31.13434 | 121.82107 | 410 ft | 186 kts | 163° |
| 2026-05-05 14:15 | 31.12182 | 121.82575 | 938 ft | 194 kts | 162° |
| 2026-05-05 14:15 | 31.10872 | 121.83082 | 1457 ft | 200 kts | 161° |
| 2026-05-05 14:16 | 31.09541 | 121.83682 | 1936 ft | 213 kts | 151° |
| 2026-05-05 14:16 | 31.08305 | 121.84689 | 2359 ft | 231 kts | 144° |
| 2026-05-05 14:16 | 31.06955 | 121.85843 | 2832 ft | 253 kts | 144° |
| 2026-05-05 14:16 | 31.05489 | 121.87087 | 2938 ft | 262 kts | 144° |
| 2026-05-05 14:17 | 31.04048 | 121.88303 | 2960 ft | 262 kts | 144° |
| 2026-05-05 14:17 | 31.02570 | 121.89549 | 3034 ft | 261 kts | 144° |
| 2026-05-05 14:17 | 31.01105 | 121.90815 | 3652 ft | 264 kts | 140° |
| 2026-05-05 14:17 | 30.99708 | 121.92224 | 4480 ft | 268 kts | 139° |
| 2026-05-05 14:18 | 30.98321 | 121.93686 | 4793 ft | 270 kts | 137° |
| 2026-05-05 14:18 | 30.96941 | 121.95165 | 4877 ft | 270 kts | 137° |
| 2026-05-05 14:18 | 30.95558 | 121.96650 | 4887 ft | 270 kts | 137° |
| 2026-05-05 14:18 | 30.94295 | 121.98247 | 4894 ft | 270 kts | 121° |
| 2026-05-05 14:19 | 30.93640 | 122.00285 | 4905 ft | 270 kts | 97° |
| 2026-05-05 14:19 | 30.93765 | 122.02444 | 5320 ft | 270 kts | 73° |
| 2026-05-05 14:19 | 30.94360 | 122.04542 | 6139 ft | 274 kts | 71° |
| 2026-05-05 14:19 | 30.94955 | 122.06664 | 6973 ft | 277 kts | 72° |
| 2026-05-05 14:20 | 30.95602 | 122.08796 | 7786 ft | 280 kts | 62° |
| 2026-05-05 14:20 | 30.96818 | 122.10548 | 8590 ft | 281 kts | 36° |
| 2026-05-05 14:20 | 30.98587 | 122.11486 | 9346 ft | 283 kts | 9° |
| 2026-05-05 14:20 | 31.00551 | 122.11397 | 10071 ft | 286 kts | 343° |
| 2026-05-05 14:21 | 31.02487 | 122.10683 | 10551 ft | 300 kts | 341° |
| 2026-05-05 14:21 | 31.04432 | 122.09945 | 10916 ft | 316 kts | 341° |
| 2026-05-05 14:21 | 31.06660 | 122.09106 | 11285 ft | 334 kts | 342° |
| 2026-05-05 14:21 | 31.08930 | 122.08253 | 11604 ft | 350 kts | 342° |
| 2026-05-05 14:22 | 31.11304 | 122.07365 | 11904 ft | 366 kts | 342° |
| 2026-05-05 14:22 | 31.13723 | 122.06465 | 12413 ft | 373 kts | 342° |
| 2026-05-05 14:22 | 31.16208 | 122.05545 | 13049 ft | 376 kts | 342° |
| 2026-05-05 14:22 | 31.18714 | 122.04613 | 13675 ft | 380 kts | 342° |
| 2026-05-05 14:23 | 31.21244 | 122.03669 | 14287 ft | 383 kts | 342° |
| 2026-05-05 14:23 | 31.23798 | 122.02714 | 14864 ft | 386 kts | 342° |
| 2026-05-05 14:23 | 31.26369 | 122.01752 | 15459 ft | 390 kts | 342° |
| 2026-05-05 14:23 | 31.28960 | 122.00782 | 16032 ft | 393 kts | 342° |
| 2026-05-05 14:24 | 31.31570 | 121.99803 | 16581 ft | 396 kts | 342° |
| 2026-05-05 14:24 | 31.34205 | 121.98814 | 17132 ft | 399 kts | 342° |
| 2026-05-05 14:24 | 31.36867 | 121.97819 | 17672 ft | 403 kts | 342° |
| 2026-05-05 14:24 | 31.39543 | 121.96816 | 18198 ft | 406 kts | 342° |
| 2026-05-05 14:25 | 31.42241 | 121.95799 | 18704 ft | 409 kts | 342° |
| 2026-05-05 14:25 | 31.44956 | 121.94769 | 19195 ft | 412 kts | 342° |
| 2026-05-05 14:25 | 31.47689 | 121.93731 | 19666 ft | 414 kts | 342° |
| 2026-05-05 14:25 | 31.50440 | 121.92684 | 20122 ft | 417 kts | 342° |
| 2026-05-05 14:26 | 31.53211 | 121.91632 | 20573 ft | 420 kts | 342° |
| 2026-05-05 14:26 | 31.56002 | 121.90573 | 20988 ft | 423 kts | 342° |
| 2026-05-05 14:26 | 31.58809 | 121.89505 | 21394 ft | 425 kts | 342° |
| 2026-05-05 14:26 | 31.61622 | 121.88435 | 21791 ft | 428 kts | 342° |
| 2026-05-05 14:27 | 31.64471 | 121.87356 | 22172 ft | 430 kts | 342° |
| 2026-05-05 14:27 | 31.67327 | 121.86271 | 22541 ft | 433 kts | 342° |
| 2026-05-05 14:27 | 31.69932 | 121.85280 | 22859 ft | 435 kts | 342° |
| 2026-05-05 14:27 | 31.72816 | 121.84181 | 23203 ft | 437 kts | 342° |
| 2026-05-05 14:28 | 31.75709 | 121.83078 | 23533 ft | 439 kts | 342° |
| 2026-05-05 14:28 | 31.78630 | 121.81964 | 23866 ft | 441 kts | 342° |
| 2026-05-05 14:28 | 31.81554 | 121.80847 | 24186 ft | 443 kts | 342° |
| 2026-05-05 14:28 | 31.84455 | 121.79740 | 24496 ft | 445 kts | 342° |
| 2026-05-05 14:29 | 31.87440 | 121.78705 | 24791 ft | 447 kts | 347° |
| 2026-05-05 14:29 | 31.90522 | 121.78158 | 25084 ft | 449 kts | 354° |
| 2026-05-05 14:29 | 31.93637 | 121.77803 | 25354 ft | 451 kts | 354° |
| 2026-05-05 14:29 | 31.96776 | 121.77440 | 25627 ft | 453 kts | 354° |
| 2026-05-05 14:30 | 31.99916 | 121.77071 | 25889 ft | 455 kts | 354° |
| 2026-05-05 14:30 | 32.03065 | 121.76697 | 26142 ft | 457 kts | 354° |
| 2026-05-05 14:30 | 32.06242 | 121.76318 | 26387 ft | 458 kts | 354° |
| 2026-05-05 14:30 | 32.09426 | 121.75936 | 26622 ft | 460 kts | 354° |
| 2026-05-05 14:31 | 32.12613 | 121.75555 | 26847 ft | 462 kts | 354° |
| 2026-05-05 14:31 | 32.15817 | 121.75173 | 27064 ft | 463 kts | 354° |
| 2026-05-05 14:31 | 32.19027 | 121.74793 | 27271 ft | 464 kts | 354° |
| 2026-05-05 14:31 | 32.22249 | 121.74413 | 27467 ft | 466 kts | 354° |
| 2026-05-05 14:32 | 32.25471 | 121.74033 | 27750 ft | 465 kts | 354° |
| 2026-05-05 14:32 | 32.28681 | 121.73651 | 28041 ft | 464 kts | 354° |
| 2026-05-05 14:32 | 32.31893 | 121.73270 | 28326 ft | 463 kts | 354° |
| 2026-05-05 14:32 | 32.35057 | 121.72893 | 28602 ft | 463 kts | 354° |
| 2026-05-05 14:33 | 32.38255 | 121.72508 | 28876 ft | 462 kts | 354° |
| 2026-05-05 14:33 | 32.41461 | 121.72127 | 29149 ft | 462 kts | 354° |
| 2026-05-05 14:33 | 32.44653 | 121.71749 | 29419 ft | 461 kts | 354° |
| 2026-05-05 14:33 | 32.47841 | 121.71372 | 29691 ft | 461 kts | 354° |
| 2026-05-05 14:34 | 32.51057 | 121.70990 | 29960 ft | 460 kts | 354° |
| 2026-05-05 14:34 | 32.54215 | 121.70617 | 30225 ft | 459 kts | 354° |
| 2026-05-05 14:34 | 32.57406 | 121.70238 | 30491 ft | 459 kts | 354° |
| 2026-05-05 14:34 | 32.60593 | 121.69855 | 30752 ft | 458 kts | 354° |
| 2026-05-05 14:35 | 32.63731 | 121.69472 | 31008 ft | 458 kts | 354° |
| 2026-05-05 14:35 | 32.66902 | 121.69087 | 31262 ft | 457 kts | 354° |
| 2026-05-05 14:35 | 32.70054 | 121.68707 | 31514 ft | 457 kts | 354° |
| 2026-05-05 14:35 | 32.73213 | 121.68329 | 31765 ft | 456 kts | 354° |
| 2026-05-05 14:36 | 32.76368 | 121.67954 | 32014 ft | 456 kts | 354° |
| 2026-05-05 14:36 | 32.79521 | 121.67581 | 32259 ft | 455 kts | 354° |
| 2026-05-05 14:36 | 32.82670 | 121.67206 | 32504 ft | 455 kts | 354° |
| 2026-05-05 14:36 | 32.85820 | 121.66829 | 32742 ft | 454 kts | 354° |
| 2026-05-05 14:37 | 32.88953 | 121.66453 | 32974 ft | 454 kts | 354° |
| 2026-05-05 14:37 | 32.92099 | 121.66072 | 33090 ft | 455 kts | 354° |
| 2026-05-05 14:37 | 32.98459 | 121.65299 | 33109 ft | 459 kts | 354° |
| 2026-05-05 14:38 | 33.04804 | 121.64535 | 33109 ft | 459 kts | 354° |